createdAt,value
2022-09-06T00:00:40.627Z,18.89
2022-09-06T00:03:08.300Z,18.85
2022-09-06T00:05:35.785Z,18.93
2022-09-06T00:08:03.970Z,18.94
2022-09-06T00:10:30.825Z,18.99
2022-09-06T00:13:04.161Z,18.93
2022-09-06T00:15:31.000Z,18.92
2022-09-06T00:18:02.634Z,19.00
2022-09-06T00:20:30.192Z,19.02
2022-09-06T00:23:00.932Z,19.08
2022-09-06T00:25:28.837Z,19.10
2022-09-06T00:28:02.508Z,19.12
2022-09-06T00:30:29.814Z,18.91
2022-09-06T00:32:56.483Z,18.50
2022-09-06T00:35:26.983Z,18.18
2022-09-06T00:38:01.103Z,17.92
2022-09-06T00:40:29.496Z,17.78
2022-09-06T00:42:57.304Z,17.82
2022-09-06T00:45:24.733Z,17.76
2022-09-06T00:47:51.481Z,17.85
2022-09-06T00:50:18.608Z,18.08
2022-09-06T00:52:47.170Z,18.28
2022-09-06T00:55:14.335Z,18.44
2022-09-06T00:57:41.233Z,18.35
2022-09-06T01:00:09.704Z,18.24
2022-09-06T01:02:36.512Z,18.19
2022-09-06T01:05:03.620Z,18.13
2022-09-06T01:07:58.857Z,18.13
2022-09-06T01:10:37.569Z,18.21
2022-09-06T01:13:13.080Z,18.24
2022-09-06T01:15:50.364Z,18.26
2022-09-06T01:18:32.182Z,18.31
2022-09-06T01:21:30.515Z,18.40
2022-09-06T01:24:25.350Z,18.42
2022-09-06T01:27:20.600Z,18.44
2022-09-06T01:30:09.333Z,18.51
2022-09-06T01:32:54.169Z,18.51
2022-09-06T01:35:25.172Z,18.58
2022-09-06T01:37:51.933Z,18.62
2022-09-06T01:40:18.615Z,18.66
2022-09-06T01:42:46.415Z,18.71
2022-09-06T01:45:17.226Z,18.76
2022-09-06T01:47:55.688Z,18.88
2022-09-06T01:50:34.495Z,19.13
2022-09-06T01:53:38.553Z,19.17
2022-09-06T01:56:19.487Z,19.16
2022-09-06T01:59:13.468Z,19.12
2022-09-06T02:02:07.718Z,19.04
2022-09-06T02:04:44.322Z,19.02
2022-09-06T02:07:18.757Z,18.99
2022-09-06T02:09:48.813Z,18.94
2022-09-06T02:12:17.271Z,18.95
2022-09-06T02:14:53.600Z,18.87
2022-09-06T02:17:21.734Z,18.81
2022-09-06T02:20:01.931Z,18.74
2022-09-06T02:22:31.120Z,18.72
2022-09-06T02:24:59.600Z,18.73
2022-09-06T02:27:26.290Z,18.72
2022-09-06T02:29:53.044Z,18.73
2022-09-06T02:32:24.223Z,18.71
2022-09-06T02:34:53.172Z,18.65
2022-09-06T02:37:20.031Z,18.65
2022-09-06T02:39:46.579Z,18.70
2022-09-06T02:42:14.748Z,18.66
2022-09-06T02:44:41.465Z,18.71
2022-09-06T02:47:08.043Z,18.72
2022-09-06T02:49:34.985Z,18.75
2022-09-06T02:54:42.065Z,18.74
2022-09-06T02:57:08.572Z,18.67
2022-09-06T02:59:35.081Z,18.66
2022-09-06T03:02:01.635Z,18.66
2022-09-06T03:04:28.246Z,18.75
2022-09-06T03:06:56.323Z,18.70
2022-09-06T03:09:22.925Z,18.67
2022-09-06T03:11:49.450Z,18.78
2022-09-06T03:14:17.220Z,18.82
2022-09-06T03:16:43.792Z,18.82
2022-09-06T03:19:10.351Z,18.85
2022-09-06T03:21:36.919Z,18.83
2022-09-06T03:24:03.610Z,18.84
2022-09-06T03:26:30.651Z,18.80
2022-09-06T03:28:57.157Z,18.78
2022-09-06T03:31:23.670Z,18.73
2022-09-06T03:33:50.180Z,18.72
2022-09-06T03:36:17.350Z,18.71
2022-09-06T03:38:44.032Z,18.68
2022-09-06T03:41:10.591Z,18.65
2022-09-06T03:43:37.130Z,18.59
2022-09-06T03:46:03.697Z,18.50
2022-09-06T03:48:30.430Z,18.52
2022-09-06T03:50:58.044Z,18.48
2022-09-06T03:53:26.120Z,18.41
2022-09-06T03:55:54.102Z,18.28
2022-09-06T03:58:22.557Z,18.23
2022-09-06T04:00:49.799Z,18.16
2022-09-06T04:03:19.367Z,18.07
2022-09-06T04:05:46.712Z,17.97
2022-09-06T04:08:13.581Z,17.93
2022-09-06T04:10:40.324Z,17.86
2022-09-06T04:13:06.818Z,17.78
2022-09-06T04:15:33.323Z,17.73
2022-09-06T04:17:59.808Z,17.70
2022-09-06T04:20:26.424Z,17.68
2022-09-06T04:22:53.609Z,17.65
2022-09-06T04:25:20.180Z,17.65
2022-09-06T04:27:46.750Z,17.64
2022-09-06T04:30:13.258Z,17.63
2022-09-06T04:32:39.856Z,17.58
2022-09-06T04:35:06.761Z,17.56
2022-09-06T04:37:33.266Z,17.54
2022-09-06T04:39:59.845Z,17.49
2022-09-06T04:42:26.481Z,17.47
2022-09-06T04:44:53.033Z,17.43
2022-09-06T04:47:19.667Z,17.41
2022-09-06T04:49:46.502Z,17.41
2022-09-06T04:52:13.050Z,17.39
2022-09-06T04:54:39.588Z,17.41
2022-09-06T04:57:06.274Z,17.39
2022-09-06T04:59:32.831Z,17.37
2022-09-06T05:01:59.454Z,17.34
2022-09-06T05:04:26.199Z,17.32
2022-09-06T05:07:03.493Z,17.33
2022-09-06T05:09:30.118Z,17.31
2022-09-06T05:11:56.609Z,17.29
2022-09-06T05:14:23.462Z,17.23
2022-09-06T05:16:50.578Z,17.21
2022-09-06T05:19:17.841Z,17.15
2022-09-06T05:21:44.346Z,17.18
2022-09-06T05:24:11.008Z,17.18
2022-09-06T05:29:17.700Z,17.31
2022-09-06T05:31:44.338Z,17.48
2022-09-06T05:34:13.426Z,17.56
2022-09-06T05:36:41.691Z,17.63
2022-09-06T05:39:08.337Z,17.75
2022-09-06T05:41:34.974Z,17.86
2022-09-06T05:44:01.548Z,17.96
2022-09-06T05:46:28.043Z,18.07
2022-09-06T05:48:55.719Z,18.13
2022-09-06T05:51:22.281Z,18.16
2022-09-06T05:53:48.821Z,18.18
2022-09-06T05:56:16.245Z,18.22
2022-09-06T05:58:43.057Z,18.24
2022-09-06T06:01:18.831Z,18.15
2022-09-06T06:04:02.639Z,18.18
2022-09-06T06:06:33.734Z,18.22
2022-09-06T06:09:01.512Z,18.21
2022-09-06T06:11:29.565Z,18.26
2022-09-06T06:13:56.189Z,18.20
2022-09-06T06:16:23.169Z,18.31
2022-09-06T06:18:52.253Z,18.39
2022-09-06T06:21:21.311Z,18.45
2022-09-06T06:23:50.822Z,18.44
2022-09-06T06:26:17.565Z,18.47
2022-09-06T06:28:44.212Z,18.52
2022-09-06T06:31:12.151Z,18.59
2022-09-06T06:33:39.684Z,18.61
2022-09-06T06:36:13.440Z,18.73
2022-09-06T06:38:41.907Z,18.81
2022-09-06T06:41:10.335Z,18.88
2022-09-06T06:43:37.776Z,18.99
2022-09-06T06:46:05.040Z,19.04
2022-09-06T06:48:32.041Z,19.18
2022-09-06T06:50:58.800Z,19.21
2022-09-06T06:53:25.328Z,19.36
2022-09-06T06:55:51.876Z,19.32
2022-09-06T06:58:19.169Z,19.44
2022-09-06T07:00:46.225Z,19.47
2022-09-06T07:03:13.493Z,19.40
2022-09-06T07:08:27.200Z,19.51
2022-09-06T07:10:53.983Z,19.39
2022-09-06T07:13:20.704Z,19.47
2022-09-06T07:15:47.292Z,19.34
2022-09-06T07:18:15.912Z,19.40
2022-09-06T07:26:17.444Z,19.40
2022-09-06T07:28:44.257Z,19.53
2022-09-06T07:33:57.814Z,19.66
2022-09-06T07:36:24.453Z,19.62
2022-09-06T07:38:51.432Z,19.49
2022-09-06T07:41:19.000Z,19.69
2022-09-06T07:43:45.805Z,19.54
2022-09-06T07:48:56.166Z,19.89
2022-09-06T07:51:22.855Z,20.18
2022-09-06T07:53:57.959Z,20.30
2022-09-06T07:56:25.061Z,20.26
2022-09-06T07:58:52.556Z,20.42
2022-09-06T08:01:31.135Z,20.38
2022-09-06T08:03:58.939Z,20.24
2022-09-06T08:06:26.752Z,20.36
2022-09-06T08:11:25.021Z,20.38
2022-09-06T08:13:54.742Z,20.49
2022-09-06T08:16:24.242Z,20.34
2022-09-06T08:18:52.776Z,20.61
2022-09-06T08:21:20.209Z,21.14
2022-09-06T08:23:48.909Z,21.54
2022-09-06T08:26:16.784Z,21.96
2022-09-06T08:28:43.622Z,22.53
2022-09-06T08:31:15.701Z,22.75
2022-09-06T08:33:43.305Z,22.92
2022-09-06T08:36:11.445Z,22.97
2022-09-06T08:38:37.993Z,22.97
2022-09-06T08:41:09.089Z,23.47
2022-09-06T08:43:36.659Z,23.28
2022-09-06T08:46:04.283Z,23.15
2022-09-06T08:48:37.143Z,23.10
2022-09-06T08:51:21.776Z,23.19
2022-09-06T08:53:48.559Z,23.19
2022-09-06T08:59:12.053Z,23.99
2022-09-06T09:02:04.671Z,23.96
2022-09-06T09:04:32.059Z,23.85
2022-09-06T09:07:00.807Z,23.64
2022-09-06T09:09:30.590Z,23.44
2022-09-06T09:11:57.316Z,23.97
2022-09-06T09:14:35.391Z,24.29
2022-09-06T09:17:15.997Z,23.34
2022-09-06T09:19:42.654Z,22.97
2022-09-06T09:22:10.099Z,23.31
2022-09-06T09:24:37.118Z,23.87
2022-09-06T09:27:11.024Z,23.33
2022-09-06T09:32:50.094Z,23.43
2022-09-06T09:35:40.535Z,23.74
2022-09-06T09:38:11.689Z,24.28
2022-09-06T09:40:53.209Z,25.15
2022-09-06T09:43:22.504Z,25.37
2022-09-06T09:46:10.118Z,25.89
2022-09-06T09:48:37.221Z,27.00
2022-09-06T09:51:46.290Z,27.07
2022-09-06T09:54:15.407Z,27.67
2022-09-06T09:56:44.365Z,27.01
2022-09-06T09:59:24.853Z,26.61
2022-09-06T10:01:55.719Z,26.81
2022-09-06T10:07:26.811Z,28.63
2022-09-06T10:10:01.866Z,28.37
2022-09-06T10:12:36.547Z,28.22
2022-09-06T10:15:06.880Z,27.54
2022-09-06T10:20:12.960Z,27.02
2022-09-06T10:25:39.189Z,27.61
2022-09-06T10:30:36.312Z,26.00
2022-09-06T10:33:08.628Z,26.56
2022-09-06T10:35:37.370Z,27.46
2022-09-06T10:38:15.715Z,28.82
2022-09-06T10:41:01.604Z,28.95
2022-09-06T10:43:37.773Z,29.64
2022-09-06T10:46:18.767Z,30.14
2022-09-06T10:51:30.305Z,29.66
2022-09-06T10:54:13.952Z,29.67
2022-09-06T10:56:49.600Z,29.33
2022-09-06T10:59:38.497Z,30.63
2022-09-06T11:02:30.686Z,30.41
2022-09-06T11:10:45.370Z,30.10
2022-09-06T11:13:23.645Z,30.88
2022-09-06T11:15:52.296Z,31.22
2022-09-06T11:18:26.503Z,30.70
2022-09-06T11:21:19.242Z,30.31
2022-09-06T11:26:36.744Z,29.40
2022-09-06T11:29:04.810Z,28.54
2022-09-06T11:34:36.585Z,27.72
2022-09-06T11:37:25.050Z,28.96
2022-09-06T11:42:52.487Z,29.37
2022-09-06T11:45:22.312Z,28.92
2022-09-06T11:47:53.201Z,28.70
2022-09-06T11:50:24.376Z,30.09
2022-09-06T11:53:12.798Z,30.35
2022-09-06T11:58:19.119Z,31.52
2022-09-06T12:04:09.039Z,32.09
2022-09-06T12:06:42.036Z,32.72
2022-09-06T12:09:30.954Z,32.98
2022-09-06T12:11:58.481Z,31.99
2022-09-06T12:14:46.842Z,32.15
2022-09-06T12:17:13.393Z,31.78
2022-09-06T12:19:52.950Z,31.18
2022-09-06T12:22:37.661Z,31.82
2022-09-06T12:25:22.972Z,32.14
2022-09-06T12:27:57.868Z,31.37
2022-09-06T12:30:44.099Z,32.32
2022-09-06T12:33:24.798Z,32.80
2022-09-06T12:35:58.895Z,32.76
2022-09-06T12:38:26.240Z,32.61
2022-09-06T12:40:56.544Z,32.03
2022-09-06T12:43:23.063Z,32.91
2022-09-06T12:45:51.644Z,34.14
2022-09-06T12:48:33.434Z,33.56
2022-09-06T12:51:05.980Z,32.89
2022-09-06T12:56:08.778Z,34.31
2022-09-06T12:58:36.417Z,34.12
2022-09-06T13:01:12.424Z,33.34
2022-09-06T13:03:38.929Z,33.05
2022-09-06T13:08:53.636Z,33.07
2022-09-06T13:11:29.727Z,32.40
2022-09-06T13:13:56.431Z,31.38
2022-09-06T13:16:26.025Z,31.41
2022-09-06T13:18:53.434Z,30.88
2022-09-06T13:21:33.169Z,32.38
2022-09-06T13:24:13.741Z,31.68
2022-09-06T13:26:40.572Z,31.14
2022-09-06T13:29:30.607Z,30.55
2022-09-06T13:31:59.361Z,30.95
2022-09-06T13:34:31.087Z,30.86
2022-09-06T13:37:03.509Z,30.78
2022-09-06T13:39:33.095Z,30.57
2022-09-06T13:42:12.312Z,30.48
2022-09-06T13:44:39.757Z,30.94
2022-09-06T13:47:06.538Z,31.08
2022-09-06T13:49:33.805Z,30.69
2022-09-06T13:52:02.184Z,31.17
2022-09-06T13:54:29.806Z,31.04
2022-09-06T13:59:37.324Z,32.23
2022-09-06T14:02:07.653Z,33.01
2022-09-06T14:04:35.689Z,33.23
2022-09-06T14:07:02.626Z,33.46
2022-09-06T14:09:30.034Z,33.22
2022-09-06T14:12:04.560Z,33.15
2022-09-06T14:14:31.069Z,33.63
2022-09-06T14:16:57.581Z,34.12
2022-09-06T14:19:24.182Z,33.52
2022-09-06T14:21:50.694Z,32.50
2022-09-06T14:24:17.754Z,32.74
2022-09-06T14:26:44.298Z,32.92
2022-09-06T14:29:10.905Z,32.84
2022-09-06T14:31:38.922Z,32.86
2022-09-06T14:34:05.688Z,33.15
2022-09-06T14:36:32.767Z,32.04
2022-09-06T14:39:00.228Z,30.64
2022-09-06T14:41:27.256Z,29.27
2022-09-06T14:43:55.565Z,29.25
2022-09-06T14:46:23.885Z,28.97
2022-09-06T14:49:00.541Z,29.21
2022-09-06T14:51:27.540Z,29.84
2022-09-06T14:53:59.830Z,30.02
2022-09-06T14:56:27.010Z,29.98
2022-09-06T14:58:57.176Z,29.28
2022-09-06T15:01:26.631Z,29.61
2022-09-06T15:03:58.410Z,30.01
2022-09-06T15:06:26.018Z,29.45
2022-09-06T15:08:58.418Z,29.47
2022-09-06T15:11:34.584Z,29.44
2022-09-06T15:14:06.226Z,29.29
2022-09-06T15:16:33.349Z,29.18
2022-09-06T15:19:00.000Z,29.44
2022-09-06T15:21:26.691Z,29.50
2022-09-06T15:23:53.279Z,29.60
2022-09-06T15:26:19.885Z,30.30
2022-09-06T15:28:46.846Z,30.10
2022-09-06T15:31:15.924Z,31.32
2022-09-06T15:33:42.630Z,32.06
2022-09-06T15:36:10.557Z,32.35
2022-09-06T15:38:42.333Z,31.89
2022-09-06T15:41:27.052Z,31.26
2022-09-06T15:43:55.468Z,30.29
2022-09-06T15:46:48.236Z,29.51
2022-09-06T15:49:19.273Z,29.10
2022-09-06T15:51:46.691Z,28.41
2022-09-06T15:54:14.591Z,27.84
2022-09-06T15:56:41.816Z,27.49
2022-09-06T15:59:08.464Z,27.10
2022-09-06T16:01:35.680Z,26.88
2022-09-06T16:04:05.516Z,26.74
2022-09-06T16:06:42.027Z,26.49
2022-09-06T16:09:13.776Z,26.46
2022-09-06T16:14:21.898Z,26.33
2022-09-06T16:16:48.453Z,26.35
2022-09-06T16:19:15.013Z,26.39
2022-09-06T16:21:42.942Z,26.32
2022-09-06T16:24:11.513Z,26.28
2022-09-06T16:26:43.358Z,26.15
2022-09-06T16:29:11.406Z,26.15
2022-09-06T16:31:40.599Z,26.29
2022-09-06T16:34:09.049Z,26.20
2022-09-06T16:36:35.611Z,26.13
2022-09-06T16:44:16.729Z,25.93
2022-09-06T16:46:45.607Z,25.79
2022-09-06T16:51:53.199Z,25.70
2022-09-06T16:54:20.084Z,25.28
2022-09-06T16:56:46.660Z,25.32
2022-09-06T16:59:15.863Z,25.26
2022-09-06T17:01:42.561Z,25.09
2022-09-06T17:04:09.984Z,25.07
2022-09-06T17:09:23.985Z,24.94
2022-09-06T17:11:50.737Z,25.03
2022-09-06T17:17:04.973Z,25.15
2022-09-06T17:19:35.436Z,24.95
2022-09-06T17:24:43.539Z,24.94
2022-09-06T17:29:51.021Z,25.07
2022-09-06T17:32:17.792Z,25.13
2022-09-06T17:34:44.737Z,25.07
2022-09-06T17:39:52.275Z,24.92
2022-09-06T17:42:18.865Z,24.97
2022-09-06T17:44:45.612Z,25.03
2022-09-06T17:47:13.672Z,25.00
2022-09-06T17:52:19.785Z,24.95
2022-09-06T17:54:47.149Z,24.94
2022-09-06T17:59:53.457Z,24.91
2022-09-06T18:04:59.333Z,24.89
2022-09-06T18:07:25.955Z,24.84
2022-09-06T18:09:52.681Z,24.76
2022-09-06T18:12:20.225Z,24.63
2022-09-06T18:14:46.898Z,24.59
2022-09-06T18:17:13.461Z,24.46
2022-09-06T18:19:40.112Z,24.36
2022-09-06T18:24:49.009Z,24.30
2022-09-06T18:27:16.527Z,24.28
2022-09-06T18:29:43.123Z,24.25
2022-09-06T18:32:09.687Z,24.19
2022-09-06T18:34:36.486Z,24.14
2022-09-06T18:37:03.089Z,24.08
2022-09-06T18:39:29.776Z,24.06
2022-09-06T18:42:03.882Z,24.01
2022-09-06T18:44:32.519Z,23.91
2022-09-06T18:47:03.591Z,23.86
2022-09-06T18:49:30.593Z,23.81
2022-09-06T18:51:57.277Z,23.74
2022-09-06T18:54:23.887Z,23.72
2022-09-06T18:56:50.460Z,23.67
2022-09-06T18:59:17.070Z,23.64
2022-09-06T19:01:44.156Z,23.62
2022-09-06T19:04:11.829Z,23.56
2022-09-06T19:06:39.602Z,23.52
2022-09-06T19:09:10.063Z,23.46
2022-09-06T19:11:36.936Z,23.43
2022-09-06T19:14:04.677Z,23.36
2022-09-06T19:16:31.776Z,23.30
2022-09-06T19:19:03.259Z,23.30
2022-09-06T19:21:29.894Z,23.26
2022-09-06T19:23:58.907Z,23.22
2022-09-06T19:26:27.879Z,23.21
2022-09-06T19:28:56.561Z,23.16
2022-09-06T19:31:24.595Z,23.12
2022-09-06T19:33:51.712Z,23.10
2022-09-06T19:36:19.165Z,23.09
2022-09-06T19:39:02.960Z,23.11
2022-09-06T19:41:31.536Z,23.05
2022-09-06T19:43:58.918Z,23.03
2022-09-06T19:46:25.926Z,23.02
2022-09-06T19:48:54.026Z,22.99
2022-09-06T19:51:21.341Z,22.92
2022-09-06T19:53:49.897Z,22.84
2022-09-06T19:56:18.249Z,22.78
2022-09-06T19:58:45.425Z,22.69
2022-09-06T20:01:13.426Z,22.63
2022-09-06T20:03:41.739Z,22.54
2022-09-06T20:06:08.812Z,22.56
2022-09-06T20:08:36.794Z,22.54
2022-09-06T20:11:05.494Z,22.56
2022-09-06T20:13:34.248Z,22.48
2022-09-06T20:16:03.355Z,22.34
2022-09-06T20:18:30.076Z,22.28
2022-09-06T20:20:59.365Z,22.10
2022-09-06T20:23:27.817Z,21.84
2022-09-06T20:26:02.209Z,21.80
2022-09-06T20:28:29.286Z,21.73
2022-09-06T20:31:07.745Z,21.66
2022-09-06T20:33:34.917Z,21.60
2022-09-06T20:36:06.478Z,21.59
2022-09-06T20:38:35.333Z,21.44
2022-09-06T20:41:04.902Z,21.37
2022-09-06T20:43:34.452Z,21.22
2022-09-06T20:46:04.204Z,20.86
2022-09-06T20:48:34.540Z,20.75
2022-09-06T20:51:03.005Z,20.72
2022-09-06T20:53:31.518Z,20.51
2022-09-06T20:56:00.344Z,20.33
2022-09-06T20:58:27.878Z,20.24
2022-09-06T21:00:54.578Z,20.17
2022-09-06T21:03:21.492Z,19.97
2022-09-06T21:05:48.317Z,19.67
2022-09-06T21:08:15.344Z,19.43
2022-09-06T21:10:41.912Z,18.80
2022-09-06T21:13:09.005Z,18.22
2022-09-06T21:15:36.853Z,17.86
2022-09-06T21:18:04.699Z,17.46
2022-09-06T21:20:31.630Z,17.34
2022-09-06T21:22:58.201Z,17.25
2022-09-06T21:25:24.680Z,17.06
2022-09-06T21:27:55.591Z,17.10
2022-09-06T21:30:22.389Z,17.22
2022-09-06T21:32:49.110Z,17.35
2022-09-06T21:35:15.720Z,17.46
2022-09-06T21:37:46.100Z,17.46
2022-09-06T21:40:12.637Z,17.50
2022-09-06T21:42:39.177Z,17.55
2022-09-06T21:45:06.247Z,17.60
2022-09-06T21:47:32.880Z,17.66
2022-09-06T21:49:59.415Z,17.73
2022-09-06T21:52:25.940Z,17.75
2022-09-06T21:54:52.431Z,17.76
2022-09-06T21:57:18.977Z,17.72
2022-09-06T21:59:45.528Z,17.70
2022-09-06T22:02:12.683Z,17.74
2022-09-06T22:04:40.248Z,17.72
2022-09-06T22:07:06.737Z,17.63
2022-09-06T22:09:33.259Z,17.68
2022-09-06T22:11:59.758Z,17.67
2022-09-06T22:14:26.636Z,17.65
2022-09-06T22:16:53.478Z,17.59
2022-09-06T22:19:20.295Z,17.51
2022-09-06T22:21:46.887Z,17.41
2022-09-06T22:24:15.736Z,17.42
2022-09-06T22:26:42.629Z,17.42
2022-09-06T22:29:11.578Z,17.33
2022-09-06T22:31:38.394Z,17.21
2022-09-06T22:34:05.461Z,17.24
2022-09-06T22:36:32.431Z,17.24
2022-09-06T22:38:59.147Z,17.23
2022-09-06T22:41:27.278Z,17.27
2022-09-06T22:43:54.341Z,17.30
2022-09-06T22:46:21.130Z,17.30
2022-09-06T22:48:47.765Z,17.24
2022-09-06T22:51:14.340Z,17.25
2022-09-06T22:53:40.890Z,17.25
2022-09-06T22:56:07.495Z,17.25
2022-09-06T22:58:35.411Z,17.28
2022-09-06T23:01:10.593Z,17.26
2022-09-06T23:03:37.836Z,17.24
2022-09-06T23:06:04.514Z,17.26
2022-09-06T23:08:31.970Z,17.25
2022-09-06T23:11:03.018Z,17.26
2022-09-06T23:13:29.504Z,17.31
2022-09-06T23:16:02.518Z,17.29
2022-09-06T23:18:29.147Z,17.26
2022-09-06T23:20:55.638Z,17.25
2022-09-06T23:23:22.178Z,17.26
2022-09-06T23:25:48.662Z,17.23
2022-09-06T23:28:15.162Z,17.23
2022-09-06T23:30:41.692Z,17.21
2022-09-06T23:33:08.246Z,17.17
2022-09-06T23:35:34.758Z,17.17
2022-09-06T23:38:01.252Z,17.12
2022-09-06T23:40:27.753Z,17.08
2022-09-06T23:42:54.611Z,17.08
2022-09-06T23:45:21.177Z,17.05
2022-09-06T23:47:47.713Z,17.03
2022-09-06T23:50:15.090Z,17.08
2022-09-06T23:52:41.625Z,17.06
2022-09-06T23:55:09.504Z,17.07
2022-09-06T23:57:36.011Z,17.12
